sensor_id;sensor_type;location;lat;lon;timestamp;P1;durP1;ratioP1;P2;durP2;ratioP2
16113;SDS011;8161;-33.910;151.156;2022-07-12T00:00:15;4.70;;;1.90;;
16113;SDS011;8161;-33.910;151.156;2022-07-12T00:02:42;3.97;;;2.03;;
16113;SDS011;8161;-33.910;151.156;2022-07-12T00:05:10;3.92;;;2.05;;
16113;SDS011;8161;-33.910;151.156;2022-07-12T00:07:37;4.47;;;2.63;;
16113;SDS011;8161;-33.910;151.156;2022-07-12T00:10:04;2.88;;;2.10;;
16113;SDS011;8161;-33.910;151.156;2022-07-12T00:12:32;4.88;;;2.47;;
16113;SDS011;8161;-33.910;151.156;2022-07-12T00:15:00;4.18;;;2.08;;
16113;SDS011;8161;-33.910;151.156;2022-07-12T00:17:27;3.72;;;2.20;;
16113;SDS011;8161;-33.910;151.156;2022-07-12T00:19:54;3.85;;;2.05;;
16113;SDS011;8161;-33.910;151.156;2022-07-12T00:22:21;4.13;;;2.10;;
16113;SDS011;8161;-33.910;151.156;2022-07-12T00:24:50;6.00;;;2.20;;
16113;SDS011;8161;-33.910;151.156;2022-07-12T00:27:17;6.82;;;1.75;;
16113;SDS011;8161;-33.910;151.156;2022-07-12T00:29:44;3.22;;;1.90;;
16113;SDS011;8161;-33.910;151.156;2022-07-12T00:32:11;2.13;;;1.58;;
16113;SDS011;8161;-33.910;151.156;2022-07-12T00:34:38;3.58;;;1.77;;
16113;SDS011;8161;-33.910;151.156;2022-07-12T00:37:06;3.70;;;2.00;;
16113;SDS011;8161;-33.910;151.156;2022-07-12T00:39:33;4.85;;;1.90;;
16113;SDS011;8161;-33.910;151.156;2022-07-12T00:42:00;2.25;;;1.58;;
16113;SDS011;8161;-33.910;151.156;2022-07-12T00:44:28;4.10;;;1.48;;
16113;SDS011;8161;-33.910;151.156;2022-07-12T00:46:59;2.78;;;1.40;;
16113;SDS011;8161;-33.910;151.156;2022-07-12T00:49:27;2.55;;;1.63;;
16113;SDS011;8161;-33.910;151.156;2022-07-12T00:51:56;3.70;;;1.67;;
16113;SDS011;8161;-33.910;151.156;2022-07-12T00:54:23;6.82;;;1.70;;
16113;SDS011;8161;-33.910;151.156;2022-07-12T00:56:51;2.92;;;1.70;;
16113;SDS011;8161;-33.910;151.156;2022-07-12T00:59:18;3.33;;;1.67;;
16113;SDS011;8161;-33.910;151.156;2022-07-12T01:01:45;3.83;;;1.77;;
16113;SDS011;8161;-33.910;151.156;2022-07-12T01:04:12;5.82;;;1.75;;
16113;SDS011;8161;-33.910;151.156;2022-07-12T01:06:43;6.05;;;1.92;;
16113;SDS011;8161;-33.910;151.156;2022-07-12T01:09:11;6.20;;;2.58;;
16113;SDS011;8161;-33.910;151.156;2022-07-12T01:11:39;4.25;;;2.05;;
16113;SDS011;8161;-33.910;151.156;2022-07-12T01:14:09;5.35;;;2.20;;
16113;SDS011;8161;-33.910;151.156;2022-07-12T01:16:39;6.95;;;2.70;;
16113;SDS011;8161;-33.910;151.156;2022-07-12T01:19:06;5.32;;;2.30;;
16113;SDS011;8161;-33.910;151.156;2022-07-12T01:21:36;8.95;;;2.20;;
16113;SDS011;8161;-33.910;151.156;2022-07-12T01:24:05;3.20;;;2.30;;
16113;SDS011;8161;-33.910;151.156;2022-07-12T01:26:34;6.70;;;2.63;;
16113;SDS011;8161;-33.910;151.156;2022-07-12T01:29:02;5.53;;;2.63;;
16113;SDS011;8161;-33.910;151.156;2022-07-12T01:31:31;6.03;;;2.22;;
16113;SDS011;8161;-33.910;151.156;2022-07-12T01:34:01;7.32;;;2.42;;
16113;SDS011;8161;-33.910;151.156;2022-07-12T01:36:29;3.90;;;1.90;;
16113;SDS011;8161;-33.910;151.156;2022-07-12T01:38:57;4.00;;;1.90;;
16113;SDS011;8161;-33.910;151.156;2022-07-12T01:41:24;4.47;;;1.95;;
16113;SDS011;8161;-33.910;151.156;2022-07-12T01:43:52;4.55;;;2.17;;
16113;SDS011;8161;-33.910;151.156;2022-07-12T01:46:20;3.80;;;1.88;;
16113;SDS011;8161;-33.910;151.156;2022-07-12T01:48:47;2.80;;;1.40;;
16113;SDS011;8161;-33.910;151.156;2022-07-12T01:51:14;5.32;;;1.80;;
16113;SDS011;8161;-33.910;151.156;2022-07-12T01:53:42;5.05;;;1.77;;
16113;SDS011;8161;-33.910;151.156;2022-07-12T01:56:09;5.35;;;2.00;;
16113;SDS011;8161;-33.910;151.156;2022-07-12T01:58:37;3.88;;;1.73;;
16113;SDS011;8161;-33.910;151.156;2022-07-12T02:01:04;5.10;;;2.05;;
16113;SDS011;8161;-33.910;151.156;2022-07-12T02:03:34;5.20;;;1.75;;
16113;SDS011;8161;-33.910;151.156;2022-07-12T02:06:02;4.97;;;1.75;;
16113;SDS011;8161;-33.910;151.156;2022-07-12T02:08:30;4.32;;;1.73;;
16113;SDS011;8161;-33.910;151.156;2022-07-12T02:10:57;4.63;;;1.85;;
16113;SDS011;8161;-33.910;151.156;2022-07-12T02:13:24;7.18;;;1.67;;
16113;SDS011;8161;-33.910;151.156;2022-07-12T02:15:51;4.05;;;1.70;;
16113;SDS011;8161;-33.910;151.156;2022-07-12T02:18:19;7.03;;;1.90;;
16113;SDS011;8161;-33.910;151.156;2022-07-12T02:20:46;4.78;;;1.80;;
16113;SDS011;8161;-33.910;151.156;2022-07-12T02:23:13;7.20;;;2.13;;
16113;SDS011;8161;-33.910;151.156;2022-07-12T02:25:40;7.78;;;2.08;;
16113;SDS011;8161;-33.910;151.156;2022-07-12T02:28:07;8.13;;;2.10;;
16113;SDS011;8161;-33.910;151.156;2022-07-12T02:30:35;4.05;;;1.60;;
16113;SDS011;8161;-33.910;151.156;2022-07-12T02:33:02;3.22;;;1.67;;
16113;SDS011;8161;-33.910;151.156;2022-07-12T02:35:29;4.13;;;1.67;;
16113;SDS011;8161;-33.910;151.156;2022-07-12T02:37:56;2.80;;;1.73;;
16113;SDS011;8161;-33.910;151.156;2022-07-12T02:40:23;7.88;;;2.28;;
16113;SDS011;8161;-33.910;151.156;2022-07-12T02:43:04;5.15;;;1.90;;
16113;SDS011;8161;-33.910;151.156;2022-07-12T02:45:31;12.07;;;2.28;;
16113;SDS011;8161;-33.910;151.156;2022-07-12T02:47:58;3.55;;;2.08;;
16113;SDS011;8161;-33.910;151.156;2022-07-12T02:50:26;3.97;;;1.83;;
16113;SDS011;8161;-33.910;151.156;2022-07-12T02:52:53;8.85;;;2.90;;
16113;SDS011;8161;-33.910;151.156;2022-07-12T02:55:20;8.48;;;2.65;;
16113;SDS011;8161;-33.910;151.156;2022-07-12T02:57:47;5.68;;;1.98;;
16113;SDS011;8161;-33.910;151.156;2022-07-12T03:00:15;4.82;;;1.67;;
16113;SDS011;8161;-33.910;151.156;2022-07-12T03:02:42;4.55;;;2.42;;
16113;SDS011;8161;-33.910;151.156;2022-07-12T03:05:10;3.47;;;1.80;;
16113;SDS011;8161;-33.910;151.156;2022-07-12T03:07:37;5.35;;;2.10;;
16113;SDS011;8161;-33.910;151.156;2022-07-12T03:10:04;5.85;;;2.25;;
16113;SDS011;8161;-33.910;151.156;2022-07-12T03:12:32;6.05;;;2.17;;
16113;SDS011;8161;-33.910;151.156;2022-07-12T03:14:59;5.47;;;2.10;;
16113;SDS011;8161;-33.910;151.156;2022-07-12T03:17:27;7.35;;;2.33;;
16113;SDS011;8161;-33.910;151.156;2022-07-12T03:19:54;4.88;;;2.13;;
16113;SDS011;8161;-33.910;151.156;2022-07-12T03:22:21;3.53;;;2.38;;
16113;SDS011;8161;-33.910;151.156;2022-07-12T03:24:48;6.97;;;2.70;;
16113;SDS011;8161;-33.910;151.156;2022-07-12T03:27:17;5.38;;;2.25;;
16113;SDS011;8161;-33.910;151.156;2022-07-12T03:29:44;4.53;;;2.20;;
16113;SDS011;8161;-33.910;151.156;2022-07-12T03:32:11;5.43;;;1.92;;
16113;SDS011;8161;-33.910;151.156;2022-07-12T03:34:38;3.47;;;1.80;;
16113;SDS011;8161;-33.910;151.156;2022-07-12T03:37:06;4.75;;;2.08;;
16113;SDS011;8161;-33.910;151.156;2022-07-12T03:39:33;2.35;;;1.50;;
16113;SDS011;8161;-33.910;151.156;2022-07-12T03:42:00;7.28;;;2.00;;
16113;SDS011;8161;-33.910;151.156;2022-07-12T03:44:27;5.43;;;2.13;;
16113;SDS011;8161;-33.910;151.156;2022-07-12T03:46:55;5.32;;;2.05;;
16113;SDS011;8161;-33.910;151.156;2022-07-12T03:49:24;5.65;;;1.83;;
16113;SDS011;8161;-33.910;151.156;2022-07-12T03:51:51;7.22;;;2.00;;
16113;SDS011;8161;-33.910;151.156;2022-07-12T03:54:18;5.50;;;2.42;;
16113;SDS011;8161;-33.910;151.156;2022-07-12T03:56:45;7.88;;;1.90;;
16113;SDS011;8161;-33.910;151.156;2022-07-12T03:59:26;3.30;;;1.90;;
16113;SDS011;8161;-33.910;151.156;2022-07-12T04:01:53;5.35;;;2.10;;
16113;SDS011;8161;-33.910;151.156;2022-07-12T04:04:20;4.32;;;1.35;;
16113;SDS011;8161;-33.910;151.156;2022-07-12T04:06:48;5.53;;;1.27;;
16113;SDS011;8161;-33.910;151.156;2022-07-12T04:09:15;1.98;;;1.40;;
16113;SDS011;8161;-33.910;151.156;2022-07-12T04:11:43;2.72;;;1.77;;
16113;SDS011;8161;-33.910;151.156;2022-07-12T04:14:10;6.20;;;1.98;;
16113;SDS011;8161;-33.910;151.156;2022-07-12T04:16:37;4.10;;;1.60;;
16113;SDS011;8161;-33.910;151.156;2022-07-12T04:19:05;3.65;;;1.80;;
16113;SDS011;8161;-33.910;151.156;2022-07-12T04:21:37;2.88;;;1.25;;
16113;SDS011;8161;-33.910;151.156;2022-07-12T04:24:05;2.05;;;1.10;;
16113;SDS011;8161;-33.910;151.156;2022-07-12T04:26:33;6.05;;;1.33;;
16113;SDS011;8161;-33.910;151.156;2022-07-12T04:29:00;3.35;;;1.23;;
16113;SDS011;8161;-33.910;151.156;2022-07-12T04:31:27;3.88;;;1.08;;
16113;SDS011;8161;-33.910;151.156;2022-07-12T04:33:54;1.75;;;1.17;;
16113;SDS011;8161;-33.910;151.156;2022-07-12T04:36:21;2.10;;;0.80;;
16113;SDS011;8161;-33.910;151.156;2022-07-12T04:38:49;3.28;;;0.70;;
16113;SDS011;8161;-33.910;151.156;2022-07-12T04:41:16;2.53;;;1.25;;
16113;SDS011;8161;-33.910;151.156;2022-07-12T04:43:43;2.72;;;1.10;;
16113;SDS011;8161;-33.910;151.156;2022-07-12T04:46:10;3.35;;;1.00;;
16113;SDS011;8161;-33.910;151.156;2022-07-12T04:48:38;2.67;;;0.90;;
16113;SDS011;8161;-33.910;151.156;2022-07-12T04:51:05;6.55;;;1.55;;
16113;SDS011;8161;-33.910;151.156;2022-07-12T04:53:32;3.03;;;0.98;;
16113;SDS011;8161;-33.910;151.156;2022-07-12T04:55:59;4.20;;;1.25;;
16113;SDS011;8161;-33.910;151.156;2022-07-12T04:58:27;2.05;;;0.98;;
16113;SDS011;8161;-33.910;151.156;2022-07-12T05:00:54;3.38;;;1.00;;
16113;SDS011;8161;-33.910;151.156;2022-07-12T05:03:21;1.17;;;0.60;;
16113;SDS011;8161;-33.910;151.156;2022-07-12T05:05:53;1.08;;;0.60;;
16113;SDS011;8161;-33.910;151.156;2022-07-12T05:08:20;1.45;;;0.80;;
16113;SDS011;8161;-33.910;151.156;2022-07-12T05:10:48;0.82;;;0.50;;
16113;SDS011;8161;-33.910;151.156;2022-07-12T05:13:15;3.67;;;0.90;;
16113;SDS011;8161;-33.910;151.156;2022-07-12T05:15:42;2.15;;;0.70;;
16113;SDS011;8161;-33.910;151.156;2022-07-12T05:18:10;1.08;;;0.70;;
16113;SDS011;8161;-33.910;151.156;2022-07-12T05:20:38;4.78;;;0.82;;
16113;SDS011;8161;-33.910;151.156;2022-07-12T05:23:07;1.75;;;0.88;;
16113;SDS011;8161;-33.910;151.156;2022-07-12T05:25:34;1.13;;;0.60;;
16113;SDS011;8161;-33.910;151.156;2022-07-12T05:28:02;3.15;;;0.73;;
16113;SDS011;8161;-33.910;151.156;2022-07-12T05:30:29;1.08;;;0.50;;
16113;SDS011;8161;-33.910;151.156;2022-07-12T05:32:57;2.00;;;0.60;;
16113;SDS011;8161;-33.910;151.156;2022-07-12T05:35:24;1.30;;;0.68;;
16113;SDS011;8161;-33.910;151.156;2022-07-12T05:37:52;1.85;;;0.60;;
16113;SDS011;8161;-33.910;151.156;2022-07-12T05:40:19;1.40;;;0.60;;
16113;SDS011;8161;-33.910;151.156;2022-07-12T05:42:46;2.38;;;0.60;;
16113;SDS011;8161;-33.910;151.156;2022-07-12T05:45:14;1.00;;;0.50;;
16113;SDS011;8161;-33.910;151.156;2022-07-12T05:47:41;2.70;;;0.60;;
16113;SDS011;8161;-33.910;151.156;2022-07-12T05:50:09;1.05;;;0.52;;
16113;SDS011;8161;-33.910;151.156;2022-07-12T05:52:37;0.85;;;0.55;;
16113;SDS011;8161;-33.910;151.156;2022-07-12T05:55:17;2.55;;;0.40;;
16113;SDS011;8161;-33.910;151.156;2022-07-12T05:57:45;1.70;;;0.70;;
16113;SDS011;8161;-33.910;151.156;2022-07-12T06:00:12;1.08;;;0.75;;
16113;SDS011;8161;-33.910;151.156;2022-07-12T06:02:41;4.45;;;1.02;;
16113;SDS011;8161;-33.910;151.156;2022-07-12T06:05:09;4.47;;;1.38;;
16113;SDS011;8161;-33.910;151.156;2022-07-12T06:07:36;2.03;;;1.23;;
16113;SDS011;8161;-33.910;151.156;2022-07-12T06:10:03;3.83;;;1.48;;
16113;SDS011;8161;-33.910;151.156;2022-07-12T06:12:31;3.53;;;1.13;;
16113;SDS011;8161;-33.910;151.156;2022-07-12T06:14:59;5.63;;;2.05;;
16113;SDS011;8161;-33.910;151.156;2022-07-12T06:17:26;5.88;;;1.80;;
16113;SDS011;8161;-33.910;151.156;2022-07-12T06:19:53;3.97;;;1.77;;
16113;SDS011;8161;-33.910;151.156;2022-07-12T06:22:20;2.95;;;1.52;;
16113;SDS011;8161;-33.910;151.156;2022-07-12T06:24:48;5.72;;;2.15;;
16113;SDS011;8161;-33.910;151.156;2022-07-12T06:27:15;2.35;;;1.50;;
16113;SDS011;8161;-33.910;151.156;2022-07-12T06:29:42;3.53;;;1.75;;
16113;SDS011;8161;-33.910;151.156;2022-07-12T06:32:14;2.33;;;1.17;;
16113;SDS011;8161;-33.910;151.156;2022-07-12T06:34:42;1.83;;;1.10;;
16113;SDS011;8161;-33.910;151.156;2022-07-12T06:37:09;3.03;;;1.25;;
16113;SDS011;8161;-33.910;151.156;2022-07-12T06:39:38;2.95;;;1.20;;
16113;SDS011;8161;-33.910;151.156;2022-07-12T06:42:06;3.00;;;1.17;;
16113;SDS011;8161;-33.910;151.156;2022-07-12T06:44:33;3.65;;;2.00;;
16113;SDS011;8161;-33.910;151.156;2022-07-12T06:47:01;4.80;;;2.25;;
16113;SDS011;8161;-33.910;151.156;2022-07-12T06:49:28;4.07;;;1.63;;
16113;SDS011;8161;-33.910;151.156;2022-07-12T06:51:56;4.63;;;1.30;;
16113;SDS011;8161;-33.910;151.156;2022-07-12T06:54:23;2.58;;;1.42;;
16113;SDS011;8161;-33.910;151.156;2022-07-12T06:56:51;2.72;;;1.20;;
16113;SDS011;8161;-33.910;151.156;2022-07-12T06:59:19;2.53;;;1.35;;
16113;SDS011;8161;-33.910;151.156;2022-07-12T07:01:46;2.72;;;1.15;;
16113;SDS011;8161;-33.910;151.156;2022-07-12T07:04:13;2.25;;;1.40;;
16113;SDS011;8161;-33.910;151.156;2022-07-12T07:06:40;3.88;;;1.55;;
16113;SDS011;8161;-33.910;151.156;2022-07-12T07:09:07;5.13;;;1.67;;
16113;SDS011;8161;-33.910;151.156;2022-07-12T07:11:35;3.42;;;1.73;;
16113;SDS011;8161;-33.910;151.156;2022-07-12T07:14:03;5.35;;;1.30;;
16113;SDS011;8161;-33.910;151.156;2022-07-12T07:16:30;1.95;;;1.48;;
16113;SDS011;8161;-33.910;151.156;2022-07-12T07:19:00;2.47;;;1.55;;
16113;SDS011;8161;-33.910;151.156;2022-07-12T07:21:28;2.97;;;2.08;;
16113;SDS011;8161;-33.910;151.156;2022-07-12T07:23:55;4.88;;;2.65;;
16113;SDS011;8161;-33.910;151.156;2022-07-12T07:26:23;5.88;;;2.90;;
16113;SDS011;8161;-33.910;151.156;2022-07-12T07:28:50;6.90;;;2.53;;
16113;SDS011;8161;-33.910;151.156;2022-07-12T07:31:34;5.63;;;3.05;;
16113;SDS011;8161;-33.910;151.156;2022-07-12T07:34:03;5.25;;;2.95;;
16113;SDS011;8161;-33.910;151.156;2022-07-12T07:36:30;5.85;;;3.47;;
16113;SDS011;8161;-33.910;151.156;2022-07-12T07:38:58;5.80;;;3.45;;
16113;SDS011;8161;-33.910;151.156;2022-07-12T07:41:25;7.55;;;3.47;;
16113;SDS011;8161;-33.910;151.156;2022-07-12T07:43:53;6.97;;;3.47;;
16113;SDS011;8161;-33.910;151.156;2022-07-12T07:46:20;6.13;;;3.15;;
16113;SDS011;8161;-33.910;151.156;2022-07-12T07:48:47;10.15;;;3.63;;
16113;SDS011;8161;-33.910;151.156;2022-07-12T07:51:14;6.50;;;3.53;;
16113;SDS011;8161;-33.910;151.156;2022-07-12T07:53:42;7.75;;;3.90;;
16113;SDS011;8161;-33.910;151.156;2022-07-12T07:56:10;8.05;;;4.07;;
16113;SDS011;8161;-33.910;151.156;2022-07-12T07:58:37;9.20;;;4.85;;
16113;SDS011;8161;-33.910;151.156;2022-07-12T08:01:05;7.10;;;4.13;;
16113;SDS011;8161;-33.910;151.156;2022-07-12T08:03:35;7.93;;;4.50;;
16113;SDS011;8161;-33.910;151.156;2022-07-12T08:06:02;11.68;;;5.10;;
16113;SDS011;8161;-33.910;151.156;2022-07-12T08:08:29;14.20;;;5.53;;
16113;SDS011;8161;-33.910;151.156;2022-07-12T08:10:57;9.80;;;5.30;;
16113;SDS011;8161;-33.910;151.156;2022-07-12T08:13:24;9.07;;;4.15;;
16113;SDS011;8161;-33.910;151.156;2022-07-12T08:15:54;9.63;;;4.95;;
16113;SDS011;8161;-33.910;151.156;2022-07-12T08:18:21;8.00;;;4.25;;
16113;SDS011;8161;-33.910;151.156;2022-07-12T08:20:49;10.68;;;4.93;;
16113;SDS011;8161;-33.910;151.156;2022-07-12T08:23:16;9.15;;;4.60;;
16113;SDS011;8161;-33.910;151.156;2022-07-12T08:25:43;10.05;;;4.68;;
16113;SDS011;8161;-33.910;151.156;2022-07-12T08:28:10;9.98;;;4.82;;
16113;SDS011;8161;-33.910;151.156;2022-07-12T08:30:37;10.02;;;4.90;;
16113;SDS011;8161;-33.910;151.156;2022-07-12T08:33:05;8.10;;;4.10;;
16113;SDS011;8161;-33.910;151.156;2022-07-12T08:35:33;8.63;;;4.82;;
16113;SDS011;8161;-33.910;151.156;2022-07-12T08:38:00;10.23;;;4.78;;
16113;SDS011;8161;-33.910;151.156;2022-07-12T08:40:27;10.20;;;4.63;;
16113;SDS011;8161;-33.910;151.156;2022-07-12T08:42:56;11.48;;;5.15;;
16113;SDS011;8161;-33.910;151.156;2022-07-12T08:45:25;12.95;;;5.55;;
16113;SDS011;8161;-33.910;151.156;2022-07-12T08:47:56;12.93;;;5.72;;
16113;SDS011;8161;-33.910;151.156;2022-07-12T08:50:23;11.45;;;6.13;;
16113;SDS011;8161;-33.910;151.156;2022-07-12T08:52:53;13.18;;;6.35;;
16113;SDS011;8161;-33.910;151.156;2022-07-12T08:55:25;12.50;;;6.43;;
16113;SDS011;8161;-33.910;151.156;2022-07-12T08:57:53;13.27;;;6.40;;
16113;SDS011;8161;-33.910;151.156;2022-07-12T09:00:23;13.25;;;7.47;;
16113;SDS011;8161;-33.910;151.156;2022-07-12T09:03:01;15.05;;;7.97;;
16113;SDS011;8161;-33.910;151.156;2022-07-12T09:05:33;13.82;;;7.57;;
16113;SDS011;8161;-33.910;151.156;2022-07-12T09:08:07;18.10;;;8.60;;
16113;SDS011;8161;-33.910;151.156;2022-07-12T09:10:50;14.88;;;8.18;;
16113;SDS011;8161;-33.910;151.156;2022-07-12T09:16:16;16.58;;;7.60;;
16113;SDS011;8161;-33.910;151.156;2022-07-12T09:18:45;18.65;;;8.93;;
16113;SDS011;8161;-33.910;151.156;2022-07-12T09:21:23;18.38;;;9.35;;
16113;SDS011;8161;-33.910;151.156;2022-07-12T09:23:55;20.13;;;10.68;;
16113;SDS011;8161;-33.910;151.156;2022-07-12T09:26:32;19.10;;;10.68;;
16113;SDS011;8161;-33.910;151.156;2022-07-12T09:29:06;19.65;;;10.43;;
16113;SDS011;8161;-33.910;151.156;2022-07-12T09:31:38;21.48;;;11.45;;
16113;SDS011;8161;-33.910;151.156;2022-07-12T09:34:29;21.38;;;11.85;;
16113;SDS011;8161;-33.910;151.156;2022-07-12T09:37:10;27.85;;;11.90;;
16113;SDS011;8161;-33.910;151.156;2022-07-12T09:39:38;22.60;;;11.35;;
16113;SDS011;8161;-33.910;151.156;2022-07-12T09:42:07;21.35;;;12.10;;
16113;SDS011;8161;-33.910;151.156;2022-07-12T09:44:38;18.58;;;11.40;;
16113;SDS011;8161;-33.910;151.156;2022-07-12T09:47:08;16.77;;;9.57;;
16113;SDS011;8161;-33.910;151.156;2022-07-12T09:49:44;15.32;;;7.97;;
16113;SDS011;8161;-33.910;151.156;2022-07-12T09:52:13;16.60;;;8.60;;
16113;SDS011;8161;-33.910;151.156;2022-07-12T09:54:46;14.02;;;7.72;;
16113;SDS011;8161;-33.910;151.156;2022-07-12T09:57:21;13.45;;;7.97;;
16113;SDS011;8161;-33.910;151.156;2022-07-12T09:59:55;13.38;;;7.70;;
16113;SDS011;8161;-33.910;151.156;2022-07-12T10:02:24;14.88;;;7.78;;
16113;SDS011;8161;-33.910;151.156;2022-07-12T10:04:52;16.50;;;7.75;;
16113;SDS011;8161;-33.910;151.156;2022-07-12T10:07:20;13.50;;;8.05;;
16113;SDS011;8161;-33.910;151.156;2022-07-12T10:09:50;12.88;;;7.30;;
16113;SDS011;8161;-33.910;151.156;2022-07-12T10:12:20;17.40;;;7.45;;
16113;SDS011;8161;-33.910;151.156;2022-07-12T10:14:51;16.75;;;7.30;;
16113;SDS011;8161;-33.910;151.156;2022-07-12T10:17:35;13.70;;;6.82;;
16113;SDS011;8161;-33.910;151.156;2022-07-12T10:22:47;12.43;;;7.55;;
16113;SDS011;8161;-33.910;151.156;2022-07-12T10:27:57;14.25;;;7.55;;
16113;SDS011;8161;-33.910;151.156;2022-07-12T10:30:25;13.02;;;7.82;;
16113;SDS011;8161;-33.910;151.156;2022-07-12T10:32:54;14.27;;;7.78;;
16113;SDS011;8161;-33.910;151.156;2022-07-12T10:35:26;16.10;;;8.48;;
16113;SDS011;8161;-33.910;151.156;2022-07-12T10:40:41;17.95;;;9.05;;
16113;SDS011;8161;-33.910;151.156;2022-07-12T10:45:37;15.27;;;9.02;;
16113;SDS011;8161;-33.910;151.156;2022-07-12T10:48:06;16.90;;;8.48;;
16113;SDS011;8161;-33.910;151.156;2022-07-12T10:59:03;13.27;;;8.30;;
16113;SDS011;8161;-33.910;151.156;2022-07-12T11:01:31;20.73;;;8.77;;
16113;SDS011;8161;-33.910;151.156;2022-07-12T11:04:08;14.70;;;8.32;;
16113;SDS011;8161;-33.910;151.156;2022-07-12T11:06:37;13.23;;;8.60;;
16113;SDS011;8161;-33.910;151.156;2022-07-12T11:09:07;13.40;;;7.70;;
16113;SDS011;8161;-33.910;151.156;2022-07-12T11:14:12;16.17;;;7.97;;
16113;SDS011;8161;-33.910;151.156;2022-07-12T11:16:47;18.38;;;8.23;;
16113;SDS011;8161;-33.910;151.156;2022-07-12T11:19:21;15.32;;;7.97;;
16113;SDS011;8161;-33.910;151.156;2022-07-12T11:21:49;19.10;;;7.95;;
16113;SDS011;8161;-33.910;151.156;2022-07-12T11:24:27;16.05;;;8.48;;
16113;SDS011;8161;-33.910;151.156;2022-07-12T11:26:56;17.05;;;7.80;;
16113;SDS011;8161;-33.910;151.156;2022-07-12T11:29:25;13.68;;;8.02;;
16113;SDS011;8161;-33.910;151.156;2022-07-12T11:32:02;15.55;;;7.93;;
16113;SDS011;8161;-33.910;151.156;2022-07-12T11:34:35;18.65;;;8.80;;
16113;SDS011;8161;-33.910;151.156;2022-07-12T11:37:03;17.50;;;7.97;;
16113;SDS011;8161;-33.910;151.156;2022-07-12T11:39:31;17.42;;;8.32;;
16113;SDS011;8161;-33.910;151.156;2022-07-12T11:42:02;15.40;;;8.10;;
16113;SDS011;8161;-33.910;151.156;2022-07-12T11:47:13;17.92;;;8.20;;
16113;SDS011;8161;-33.910;151.156;2022-07-12T11:49:42;11.80;;;7.28;;
16113;SDS011;8161;-33.910;151.156;2022-07-12T11:52:14;14.18;;;7.60;;
16113;SDS011;8161;-33.910;151.156;2022-07-12T11:54:45;17.73;;;8.45;;
16113;SDS011;8161;-33.910;151.156;2022-07-12T11:57:14;15.25;;;8.50;;
16113;SDS011;8161;-33.910;151.156;2022-07-12T11:59:44;13.95;;;7.80;;
16113;SDS011;8161;-33.910;151.156;2022-07-12T12:02:13;22.67;;;9.77;;
16113;SDS011;8161;-33.910;151.156;2022-07-12T12:04:48;15.20;;;8.93;;
16113;SDS011;8161;-33.910;151.156;2022-07-12T12:07:17;18.23;;;8.43;;
16113;SDS011;8161;-33.910;151.156;2022-07-12T12:12:42;17.17;;;8.68;;
16113;SDS011;8161;-33.910;151.156;2022-07-12T12:15:18;21.80;;;8.45;;
16113;SDS011;8161;-33.910;151.156;2022-07-12T12:17:57;18.48;;;8.13;;
16113;SDS011;8161;-33.910;151.156;2022-07-12T12:20:25;14.30;;;7.78;;
16113;SDS011;8161;-33.910;151.156;2022-07-12T12:22:57;15.27;;;8.10;;
16113;SDS011;8161;-33.910;151.156;2022-07-12T12:25:26;15.82;;;8.70;;
16113;SDS011;8161;-33.910;151.156;2022-07-12T12:27:56;14.88;;;8.32;;
16113;SDS011;8161;-33.910;151.156;2022-07-12T12:30:28;13.43;;;7.93;;
16113;SDS011;8161;-33.910;151.156;2022-07-12T12:32:57;15.25;;;8.43;;
16113;SDS011;8161;-33.910;151.156;2022-07-12T12:38:01;15.32;;;8.30;;
16113;SDS011;8161;-33.910;151.156;2022-07-12T12:40:36;11.90;;;8.10;;
16113;SDS011;8161;-33.910;151.156;2022-07-12T12:43:10;15.30;;;8.77;;
16113;SDS011;8161;-33.910;151.156;2022-07-12T12:48:21;14.63;;;7.90;;
16113;SDS011;8161;-33.910;151.156;2022-07-12T12:50:51;16.63;;;7.85;;
16113;SDS011;8161;-33.910;151.156;2022-07-12T12:53:23;11.20;;;7.22;;
16113;SDS011;8161;-33.910;151.156;2022-07-12T12:55:51;14.82;;;6.68;;
16113;SDS011;8161;-33.910;151.156;2022-07-12T12:58:20;17.42;;;7.47;;
16113;SDS011;8161;-33.910;151.156;2022-07-12T13:00:50;11.90;;;7.53;;
16113;SDS011;8161;-33.910;151.156;2022-07-12T13:03:20;14.35;;;6.78;;
16113;SDS011;8161;-33.910;151.156;2022-07-12T13:05:50;10.52;;;6.30;;
16113;SDS011;8161;-33.910;151.156;2022-07-12T13:08:18;11.23;;;6.28;;
16113;SDS011;8161;-33.910;151.156;2022-07-12T13:10:49;11.65;;;6.13;;
16113;SDS011;8161;-33.910;151.156;2022-07-12T13:13:37;11.32;;;6.25;;
16113;SDS011;8161;-33.910;151.156;2022-07-12T13:16:06;11.57;;;5.82;;
16113;SDS011;8161;-33.910;151.156;2022-07-12T13:18:33;11.00;;;5.50;;
16113;SDS011;8161;-33.910;151.156;2022-07-12T13:21:01;10.90;;;6.43;;
16113;SDS011;8161;-33.910;151.156;2022-07-12T13:23:28;9.57;;;6.40;;
16113;SDS011;8161;-33.910;151.156;2022-07-12T13:25:55;10.10;;;6.38;;
16113;SDS011;8161;-33.910;151.156;2022-07-12T13:28:24;12.05;;;6.00;;
16113;SDS011;8161;-33.910;151.156;2022-07-12T13:30:51;19.35;;;5.82;;
16113;SDS011;8161;-33.910;151.156;2022-07-12T13:33:20;11.27;;;5.80;;
16113;SDS011;8161;-33.910;151.156;2022-07-12T13:35:48;12.23;;;5.95;;
16113;SDS011;8161;-33.910;151.156;2022-07-12T13:38:15;9.88;;;5.80;;
16113;SDS011;8161;-33.910;151.156;2022-07-12T13:40:43;12.82;;;6.03;;
16113;SDS011;8161;-33.910;151.156;2022-07-12T13:43:11;11.50;;;5.93;;
16113;SDS011;8161;-33.910;151.156;2022-07-12T13:45:38;10.07;;;5.78;;
16113;SDS011;8161;-33.910;151.156;2022-07-12T13:48:09;11.75;;;6.00;;
16113;SDS011;8161;-33.910;151.156;2022-07-12T13:50:37;9.20;;;5.03;;
16113;SDS011;8161;-33.910;151.156;2022-07-12T13:53:04;9.02;;;5.28;;
16113;SDS011;8161;-33.910;151.156;2022-07-12T13:55:33;12.73;;;5.60;;
16113;SDS011;8161;-33.910;151.156;2022-07-12T13:58:00;8.52;;;5.00;;
16113;SDS011;8161;-33.910;151.156;2022-07-12T14:00:29;8.88;;;4.53;;
16113;SDS011;8161;-33.910;151.156;2022-07-12T14:02:56;7.95;;;5.40;;
16113;SDS011;8161;-33.910;151.156;2022-07-12T14:05:23;6.32;;;4.22;;
16113;SDS011;8161;-33.910;151.156;2022-07-12T14:07:51;9.07;;;4.70;;
16113;SDS011;8161;-33.910;151.156;2022-07-12T14:10:19;10.85;;;4.55;;
16113;SDS011;8161;-33.910;151.156;2022-07-12T14:12:46;38.13;;;4.93;;
16113;SDS011;8161;-33.910;151.156;2022-07-12T14:15:14;9.50;;;4.72;;
16113;SDS011;8161;-33.910;151.156;2022-07-12T14:17:48;9.70;;;4.25;;
16113;SDS011;8161;-33.910;151.156;2022-07-12T14:20:18;8.57;;;4.35;;
16113;SDS011;8161;-33.910;151.156;2022-07-12T14:22:46;7.28;;;3.92;;
16113;SDS011;8161;-33.910;151.156;2022-07-12T14:25:16;9.73;;;4.28;;
16113;SDS011;8161;-33.910;151.156;2022-07-12T14:27:43;10.05;;;5.07;;
16113;SDS011;8161;-33.910;151.156;2022-07-12T14:30:12;8.85;;;4.38;;
16113;SDS011;8161;-33.910;151.156;2022-07-12T14:32:39;6.88;;;4.10;;
16113;SDS011;8161;-33.910;151.156;2022-07-12T14:35:08;8.85;;;4.35;;
16113;SDS011;8161;-33.910;151.156;2022-07-12T14:37:37;8.88;;;3.85;;
16113;SDS011;8161;-33.910;151.156;2022-07-12T14:40:06;5.78;;;3.90;;
16113;SDS011;8161;-33.910;151.156;2022-07-12T14:42:33;6.55;;;3.90;;
16113;SDS011;8161;-33.910;151.156;2022-07-12T14:45:02;4.88;;;3.50;;
16113;SDS011;8161;-33.910;151.156;2022-07-12T14:47:29;8.88;;;3.63;;
16113;SDS011;8161;-33.910;151.156;2022-07-12T14:49:56;7.22;;;3.55;;
16113;SDS011;8161;-33.910;151.156;2022-07-12T14:52:26;7.05;;;3.70;;
16113;SDS011;8161;-33.910;151.156;2022-07-12T14:54:53;6.63;;;3.47;;
16113;SDS011;8161;-33.910;151.156;2022-07-12T14:57:21;5.43;;;3.35;;
16113;SDS011;8161;-33.910;151.156;2022-07-12T14:59:48;7.03;;;3.55;;